• Join FlightAware (Why Join?)
  • Login
  • US Flag 
11:29AM EDT


 

Airport Tracker/Info


-or-


 

Live Flight TrackerFlight Track Log ✈ DAL3721 ✈ 27-Apr-2013 ✈ KATL - KMLU

Flight Track Log - Related Links

Times and Time Zones

All times are in EDT time to prevent confusion due to time zone crossing. See the DAL3721 flight status page for this flight to view local times or setup timezone preferences in your user account.

Time Position Orientation Groundspeed Altitude Reporting Facility
EDT Latitude Longitude Course Direction KTS MPH feet Rate Location/Type
01:22PM 33.6500 -84.4000 234° Southwest 144 166 2,100  Level Atlanta TRACON
01:23PM 33.6667 -84.3333 73° East 233 268 3,400 1,680 Climbing Atlanta TRACON
01:24PM 33.7167 -84.2833 40° Northeast 294 338 5,700 2,760 Climbing Atlanta TRACON
01:25PM 33.8001 -84.4705 270° West  Level FlightAware Approximate
01:25PM 33.8000 -84.3000 351° North 283 326 9,300  Level Atlanta TRACON
01:26PM 33.7855 -84.5956 239° Southwest  Level FlightAware Approximate
01:27PM 33.7217 -84.7004 234° Southwest  Level FlightAware Approximate
01:27PM 33.8100 -84.4989 274° West 299 344 12,600  Level Atlanta Center
01:28PM 33.7992 -84.6039 263° West 322 371 14,700 1,920 Climbing Atlanta Center
01:29PM 33.7425 -84.6933 233° Southwest 315 362 16,500 1,620 Climbing Atlanta Center
01:30PM 33.6856 -84.7803 232° Southwest 327 376 18,000 1,260 Climbing Atlanta Center
01:31PM 33.6306 -84.8869 238° Southwest 346 398 19,100 1,020 Climbing Atlanta Center
01:32PM 33.5922 -84.9964 247° West 351 404 20,100 960 Climbing Atlanta Center
01:33PM 33.5539 -85.1031 247° West 351 404 21,100 1,020 Climbing Atlanta Center
01:34PM 33.5172 -85.2150 249° West 357 411 22,200 1,020 Climbing Atlanta Center
01:35PM 33.4953 -85.3317 257° West 368 423 23,200 960 Climbing Atlanta Center
01:36PM 33.4753 -85.4533 259° West 368 423 24,200 960 Climbing Atlanta Center
01:37PM 33.4569 -85.5700 259° West 368 423 25,200 900 Climbing Atlanta Center
01:38PM 33.4411 -85.6744 260° West 368 423 26,000 360 Climbing Atlanta Center
01:39PM 33.4225 -85.8108 261° West 373 429 26,000  Level Atlanta Center
01:40PM 33.3997 -85.9350 258° West 373 429 26,000  Level Atlanta Center
01:41PM 33.3792 -86.0564 259° West 388 447 26,000  Level Atlanta Center
01:42PM 33.3581 -86.1900 259° West 400 460 26,000  Level Atlanta Center
01:43PM 33.3369 -86.3214 259° West 405 466 26,000  Level Atlanta Center
01:44PM 33.3158 -86.4403 258° West 410 472 26,000  Level Atlanta Center
01:45PM 33.2942 -86.5836 260° West 410 472 26,000  Level Atlanta Center
01:46PM 33.2725 -86.7172 259° West 415 478 26,000  Level Atlanta Center
01:47PM 33.2486 -86.8531 258° West 410 472 26,000  Level Atlanta Center
01:48PM 33.2186 -86.9786 254° West 410 472 26,000  Level Atlanta Center
01:49PM 33.1658 -87.0886 240° Southwest 410 472 26,000  Level Atlanta Center
01:50PM 33.1128 -87.2058 242° Southwest 410 472 26,000  Level Atlanta Center
01:51PM 33.0575 -87.3253 241° Southwest 415 478 26,000  Level Atlanta Center
01:53PM 32.9614 -87.5397 242° Southwest 417 480 26,000  Level Memphis Center
01:54PM 32.9056 -87.6603 241° Southwest 412 474 26,000  Level Memphis Center
01:55PM 32.8519 -87.7831 243° Southwest 417 480 26,000  Level Memphis Center
01:56PM 32.8058 -87.8783 240° Southwest 417 480 26,000  Level Memphis Center
01:57PM 32.7439 -88.0256 243° Southwest 417 480 26,000  Level Memphis Center
01:58PM 32.6897 -88.1431 241° Southwest 412 474 26,000  Level Memphis Center
01:59PM 32.6356 -88.2628 242° Southwest 417 480 26,000  Level Memphis Center
02:00PM 32.5831 -88.3725 240° Southwest 422 486 26,000  Level Memphis Center
02:01PM 32.5264 -88.4897 240° Southwest 422 486 26,000  Level Memphis Center
02:02PM 32.4717 -88.6064 241° Southwest 422 486 26,000  Level Memphis Center
02:03PM 32.4189 -88.7256 242° Southwest 422 486 26,000  Level Memphis Center
02:04PM 32.3767 -88.8494 248° West 416 479 26,000  Level Memphis Center
02:05PM 32.3886 -88.9819 276° West 399 459 26,000  Level Memphis Center
02:06PM 32.3964 -89.1197 274° West 404 465 26,000  Level Memphis Center
02:07PM 32.4039 -89.2550 274° West 409 471 26,000  Level Memphis Center
02:08PM 32.4114 -89.3878 274° West 409 471 26,000  Level Memphis Center
02:09PM 32.4164 -89.5206 273° West 409 471 26,000  Level Memphis Center
02:10PM 32.4236 -89.6558 274° West 409 471 26,000  Level Memphis Center
02:11PM 32.4306 -89.7886 274° West 409 471 26,000  Level Memphis Center
02:12PM 32.4372 -89.9217 273° West 409 471 26,000  Level Memphis Center
02:13PM 32.4419 -90.0569 272° West 409 471 26,000  Level Memphis Center
02:14PM 32.4483 -90.1875 273° West 409 471 26,000  Level Memphis Center
02:15PM 32.4547 -90.3178 273° West 404 465 26,000 -600 Level Memphis Center
02:16PM 32.4589 -90.4483 272° West 404 465 24,900 -1,560 Descending Memphis Center
02:17PM 32.4650 -90.5764 273° West 404 465 22,900 -1,980 Descending Memphis Center
02:18PM 32.4711 -90.6947 274° West 391 450 21,000 -1,860 Descending Memphis Center
02:19PM 32.4750 -90.8056 272° West 361 415 19,200 -1,620 Descending Memphis Center
02:20PM 32.4786 -90.9139 272° West 341 392 17,800 -1,680 Descending Memphis Center
02:21PM 32.4822 -91.0247 272° West 341 392 15,900 -1,920 Descending Memphis Center
02:23PM 32.4834 -91.2440 270° West  Level FlightAware Approximate
02:30PM 32.5000 -92.0333 180° South  Level FlightAware Approximate
02:31PM 32.5109 -92.0377 180° South  Level Estimated
02:32PM 32.5109 -92.0377 180° South  Level Estimated
02:33PM 32.5109 -92.0377 180° South  Level Estimated
02:34PM 32.5109 -92.0377 180° South  Level Estimated